Time;durP1;ratioP1;P1;durP2;ratioP2;P2;SDS_P1;SDS_P2;PMS_P1;PMS_P2;Temp;Humidity;BMP_temperature;BMP_pressure;BME280_temperature;BME280_humidity;BME280_pressure;Samples;Min_cycle;Max_cycle;Signal;HPM_P1;HPM_P2
2022/04/04 00:01:43;;;;;;;10.67;8.23;;;;;;;-0.81;nan;98523.59;5037041;28;20490;-69
2022/04/04 00:04:10;;;;;;;9.77;7.57;;;;;;;-0.84;nan;98526.47;5036727;28;20873;-69
2022/04/04 00:06:37;;;;;;;8.77;7.60;;;;;;;-0.94;nan;98517.00;5036813;28;20455;-68
2022/04/04 00:09:03;;;;;;;10.63;7.67;;;;;;;-0.98;nan;98521.63;5036832;28;20445;-69
2022/04/04 00:11:30;;;;;;;11.77;7.70;;;;;;;-0.93;nan;98516.03;5036895;28;20438;-69
2022/04/04 00:13:56;;;;;;;9.13;8.23;;;;;;;-0.90;nan;98516.56;5037301;28;20435;-69
2022/04/04 00:16:22;;;;;;;10.50;7.97;;;;;;;-0.88;nan;98519.06;5036582;28;20801;-69
2022/04/04 00:18:49;;;;;;;10.30;8.83;;;;;;;-0.86;nan;98517.16;5036396;28;20443;-69
2022/04/04 00:21:16;;;;;;;9.33;7.73;;;;;;;-0.93;nan;98518.63;5036703;28;20446;-69
2022/04/04 00:23:42;;;;;;;11.67;8.10;;;;;;;-0.95;nan;98520.56;5036654;28;20447;-69
2022/04/04 00:26:08;;;;;;;11.07;8.23;;;;;;;-1.00;nan;98509.69;5036571;28;20435;-69
2022/04/04 00:28:35;;;;;;;9.40;8.50;;;;;;;-0.97;nan;98512.03;5036951;28;20462;-69
2022/04/04 00:31:01;;;;;;;9.03;7.93;;;;;;;-0.94;nan;98514.38;5036418;28;20483;-69
2022/04/04 00:33:27;;;;;;;10.17;8.03;;;;;;;-0.96;nan;98516.28;5036138;28;20443;-69
2022/04/04 00:35:54;;;;;;;15.07;8.83;;;;;;;-0.98;nan;98508.59;5036344;28;20439;-69
2022/04/04 00:38:22;;;;;;;10.17;8.03;;;;;;;-0.98;nan;98503.38;5036012;28;20810;-69
2022/04/04 00:40:49;;;;;;;9.67;7.80;;;;;;;-0.95;nan;98508.31;5036346;28;20435;-69
2022/04/04 00:43:15;;;;;;;9.30;8.40;;;;;;;-1.00;nan;98510.53;5036327;28;20443;-69
2022/04/04 00:45:46;;;;;;;13.53;8.97;;;;;;;-1.00;nan;98505.31;5036279;28;20439;-69
2022/04/04 00:48:13;;;;;;;11.90;8.73;;;;;;;-1.02;nan;98515.06;5036178;28;20467;-69
2022/04/04 00:50:39;;;;;;;9.20;8.10;;;;;;;-0.97;nan;98509.44;5036124;28;20471;-68
2022/04/04 00:53:08;;;;;;;12.83;9.60;;;;;;;-1.02;nan;98509.84;5036119;28;20439;-69
2022/04/04 00:55:35;;;;;;;11.17;8.23;;;;;;;-1.04;nan;98503.13;5034686;28;20435;-69
2022/04/04 00:58:02;;;;;;;9.87;8.40;;;;;;;-1.05;nan;98504.06;5035566;28;20474;-69
2022/04/04 01:00:29;;;;;;;11.50;9.20;;;;;;;-1.01;nan;98495.84;5036003;28;20442;-69
2022/04/04 01:02:56;;;;;;;12.57;8.57;;;;;;;-1.02;nan;98498.56;5035933;28;20551;-69
2022/04/04 01:05:22;;;;;;;10.50;8.73;;;;;;;-0.99;nan;98498.31;5035909;28;20450;-69
2022/04/04 01:07:48;;;;;;;12.97;8.77;;;;;;;-1.04;nan;98498.72;5035796;28;20467;-69
2022/04/04 01:10:15;;;;;;;10.00;8.53;;;;;;;-1.04;nan;98503.91;5036441;28;20478;-69
2022/04/04 01:12:52;;;;;;;9.67;8.57;;;;;;;-1.01;nan;98502.81;5035727;28;20438;-69
2022/04/04 01:15:19;;;;;;;10.50;9.37;;;;;;;-1.02;nan;98502.03;5035787;28;20549;-68
2022/04/04 01:17:46;;;;;;;9.80;8.67;;;;;;;-1.05;nan;98502.28;5035613;28;20471;-69
2022/04/04 01:20:14;;;;;;;12.40;8.93;;;;;;;-1.02;nan;98502.03;5035635;28;20443;-69
2022/04/04 01:22:41;;;;;;;12.03;9.17;;;;;;;-1.14;nan;98497.88;5035286;28;20538;-69
2022/04/04 01:25:09;;;;;;;11.07;8.43;;;;;;;-1.20;nan;98506.25;5035588;28;20458;-69
2022/04/04 01:27:35;;;;;;;11.67;9.20;;;;;;;-1.30;nan;98499.38;5035445;28;20520;-69
2022/04/04 01:30:02;;;;;;;14.00;9.67;;;;;;;-1.29;nan;98499.25;5035342;28;20479;-69
2022/04/04 01:32:28;;;;;;;10.90;9.77;;;;;;;-1.22;nan;98494.31;5035056;28;20949;-69
2022/04/04 01:34:54;;;;;;;10.00;8.80;;;;;;;-1.26;nan;98488.50;5035009;28;20454;-69
2022/04/04 01:37:21;;;;;;;11.67;9.37;;;;;;;-1.25;nan;98487.56;5035472;28;20826;-69
2022/04/04 01:39:47;;;;;;;11.00;8.70;;;;;;;-1.38;nan;98481.78;5035190;28;20443;-69
2022/04/04 01:42:14;;;;;;;10.30;8.83;;;;;;;-1.44;nan;98487.53;5035178;28;20457;-70
2022/04/04 01:44:40;;;;;;;12.13;9.93;;;;;;;-1.38;nan;98479.19;5035141;28;20439;-69
2022/04/04 01:47:06;;;;;;;11.30;8.67;;;;;;;-1.44;nan;98474.47;5035026;28;20487;-69
2022/04/04 01:49:33;;;;;;;10.33;8.73;;;;;;;-1.49;nan;98475.88;5034652;28;20443;-69
2022/04/04 01:51:59;;;;;;;10.40;8.97;;;;;;;-1.44;nan;98476.28;5034643;28;21013;-69
2022/04/04 01:54:26;;;;;;;12.10;8.90;;;;;;;-1.42;nan;98477.78;5034945;28;20465;-69
2022/04/04 01:56:52;;;;;;;10.67;9.13;;;;;;;-1.49;nan;98479.28;5034944;28;20514;-69
2022/04/04 01:59:18;;;;;;;11.87;8.43;;;;;;;-1.43;nan;98468.34;5034489;28;20791;-69
2022/04/04 02:01:45;;;;;;;10.17;9.17;;;;;;;-1.44;nan;98471.06;5034786;28;20434;-69
2022/04/04 02:04:12;;;;;;;13.83;9.53;;;;;;;-1.36;nan;98468.59;5034797;28;20858;-69
2022/04/04 02:06:39;;;;;;;11.83;9.80;;;;;;;-1.34;nan;98464.09;5034244;28;20455;-69
2022/04/04 02:09:06;;;;;;;12.43;10.00;;;;;;;-1.34;nan;98464.91;5034742;28;20470;-69
2022/04/04 02:11:34;;;;;;;12.87;9.17;;;;;;;-1.49;nan;98463.63;5034607;28;20475;-69
2022/04/04 02:14:02;;;;;;;12.87;9.77;;;;;;;-1.44;nan;98471.06;5034280;28;20968;-69
2022/04/04 02:16:29;;;;;;;12.50;9.70;;;;;;;-1.40;nan;98464.63;5034194;28;20937;-69
2022/04/04 02:18:55;;;;;;;11.50;9.70;;;;;;;-1.47;nan;98460.91;5034529;28;20450;-69
2022/04/04 02:21:22;;;;;;;14.73;10.73;;;;;;;-1.44;nan;98450.22;5034510;28;20445;-69
2022/04/04 02:23:48;;;;;;;12.83;10.57;;;;;;;-1.39;nan;98441.00;5034151;28;20439;-69
2022/04/04 02:26:15;;;;;;;14.53;10.93;;;;;;;-1.39;nan;98446.22;5034306;28;20546;-69
2022/04/04 02:28:41;;;;;;;12.07;10.70;;;;;;;-1.38;nan;98441.84;5034298;28;20443;-69
2022/04/04 02:31:07;;;;;;;13.20;10.77;;;;;;;-1.48;nan;98452.25;5033906;28;21006;-69
2022/04/04 02:33:34;;;;;;;13.40;11.13;;;;;;;-1.42;nan;98448.28;5033821;28;20815;-69
2022/04/04 02:36:00;;;;;;;15.10;11.17;;;;;;;-1.46;nan;98447.72;5034206;28;20450;-69
2022/04/04 02:38:28;;;;;;;13.60;11.00;;;;;;;-1.43;nan;98439.66;5033708;28;20469;-69
2022/04/04 02:40:56;;;;;;;13.43;11.37;;;;;;;-1.48;nan;98441.81;5033825;28;20952;-69
2022/04/04 02:43:23;;;;;;;13.50;11.73;;;;;;;-1.56;nan;98435.63;5034058;28;20447;-69
2022/04/04 02:45:50;;;;;;;15.27;11.60;;;;;;;-1.57;nan;98437.41;5034082;28;20439;-68
2022/04/04 02:48:17;;;;;;;14.87;11.63;;;;;;;-1.54;nan;98442.34;5033984;28;20473;-69
2022/04/04 02:50:44;;;;;;;14.53;11.97;;;;;;;-1.51;nan;98436.88;5033872;28;20481;-69
2022/04/04 02:53:11;;;;;;;12.77;10.93;;;;;;;-1.52;nan;98435.25;5033938;28;20458;-69
2022/04/04 02:58:22;;;;;;;12.33;10.33;;;;;;;-1.62;nan;98429.16;5033441;28;20532;-69
2022/04/04 03:00:49;;;;;;;15.03;11.60;;;;;;;-1.55;nan;98434.66;5033502;28;20926;-68
2022/04/04 03:03:15;;;;;;;16.30;12.13;;;;;;;-1.54;nan;98424.09;5033551;28;20435;-69
2022/04/04 03:05:42;;;;;;;12.37;10.97;;;;;;;-1.59;nan;98428.06;5033625;28;20474;-69
2022/04/04 03:08:08;;;;;;;13.07;11.40;;;;;;;-1.62;nan;98421.34;5033572;28;20473;-69
2022/04/04 03:10:35;;;;;;;14.13;11.80;;;;;;;-1.55;nan;98427.69;5033185;28;20479;-69
2022/04/04 03:13:05;;;;;;;14.50;10.83;;;;;;;-1.58;nan;98435.75;5033122;28;20805;-69
2022/04/04 03:15:34;;;;;;;13.33;11.37;;;;;;;-1.62;nan;98423.16;5032913;28;20516;-69
2022/04/04 03:18:02;;;;;;;12.90;10.93;;;;;;;-1.61;nan;98427.41;5032506;28;20505;-69
2022/04/04 03:20:30;;;;;;;14.20;10.20;;;;;;;-1.63;nan;98417.09;5033286;28;20493;-70
2022/04/04 03:22:58;;;;;;;11.40;10.10;;;;;;;-1.69;nan;98429.84;5033981;28;20443;-69
2022/04/04 03:25:25;;;;;;;15.70;11.03;;;;;;;-1.67;nan;98428.75;5033448;28;20447;-69
2022/04/04 03:27:53;;;;;;;11.60;10.23;;;;;;;-1.76;nan;98421.72;5033321;28;20470;-69
2022/04/04 03:30:25;;;;;;;14.13;10.77;;;;;;;-1.69;nan;98424.63;5032907;28;20997;-69
2022/04/04 03:32:54;;;;;;;12.57;10.53;;;;;;;-1.68;nan;98426.25;5033362;28;20424;-69
2022/04/04 03:35:22;;;;;;;12.53;10.30;;;;;;;-1.73;nan;98426.69;5033060;28;20451;-69
2022/04/04 03:37:50;;;;;;;12.87;10.27;;;;;;;-1.75;nan;98425.97;5033084;28;20466;-69
2022/04/04 03:40:19;;;;;;;14.37;10.50;;;;;;;-1.74;nan;98422.44;5033178;28;20439;-69
2022/04/04 03:42:46;;;;;;;13.07;11.20;;;;;;;-1.75;nan;98419.97;5033171;28;20465;-69
2022/04/04 03:45:14;;;;;;;13.33;11.13;;;;;;;-1.71;nan;98422.16;5033106;28;20446;-69
2022/04/04 03:47:42;;;;;;;13.63;10.77;;;;;;;-1.69;nan;98414.19;5031797;28;20489;-69
2022/04/04 03:50:12;;;;;;;13.00;10.83;;;;;;;-1.76;nan;98416.50;5033004;28;20461;-69
2022/04/04 03:52:39;;;;;;;12.40;11.10;;;;;;;-1.76;nan;98416.50;5033051;28;20497;-69
2022/04/04 03:55:06;;;;;;;13.40;11.57;;;;;;;-1.77;nan;98419.25;5032799;28;20443;-69
2022/04/04 03:57:32;;;;;;;12.97;11.07;;;;;;;-1.71;nan;98421.34;5032622;28;20475;-69
2022/04/04 03:59:59;;;;;;;13.03;11.27;;;;;;;-1.82;nan;98424.88;5032637;28;20454;-69
2022/04/04 04:02:25;;;;;;;12.87;11.13;;;;;;;-1.77;nan;98424.47;5032978;28;20443;-69
2022/04/04 04:04:52;;;;;;;13.07;10.97;;;;;;;-1.90;nan;98423.91;5032687;28;20461;-69
2022/04/04 04:07:24;;;;;;;13.97;11.77;;;;;;;-1.85;nan;98421.72;5032846;28;20462;-68
2022/04/04 04:09:50;;;;;;;13.17;10.83;;;;;;;-1.87;nan;98423.63;5032914;28;20435;-69
2022/04/04 04:12:17;;;;;;;14.63;11.57;;;;;;;-1.87;nan;98414.03;5032490;28;21004;-68
2022/04/04 04:14:43;;;;;;;12.87;11.10;;;;;;;-1.92;nan;98408.41;5032525;28;20955;-69
2022/04/04 04:17:10;;;;;;;14.73;12.13;;;;;;;-1.85;nan;98408.69;5032510;28;20466;-69
2022/04/04 04:22:21;;;;;;;14.23;11.70;;;;;;;-1.88;nan;98404.56;5032736;28;20490;-69
2022/04/04 04:24:48;;;;;;;14.83;11.77;;;;;;;-1.83;nan;98399.78;5032472;28;20451;-69
2022/04/04 04:27:15;;;;;;;17.40;12.23;;;;;;;-1.93;nan;98398.09;5032388;28;20821;-69
2022/04/04 04:29:41;;;;;;;13.93;11.90;;;;;;;-1.95;nan;98403.44;5034781;28;20470;-69
2022/04/04 04:32:08;;;;;;;13.13;11.37;;;;;;;-1.97;nan;98401.94;5036251;28;20483;-68
2022/04/04 04:34:36;;;;;;;14.83;11.73;;;;;;;-2.01;nan;98398.78;5036245;28;20442;-69
2022/04/04 04:37:03;;;;;;;14.93;11.93;;;;;;;-2.01;nan;98400.53;5036128;28;20474;-71
2022/04/04 04:39:29;;;;;;;15.13;11.80;;;;;;;-2.01;nan;98397.94;5035753;28;20453;-69
2022/04/04 04:41:56;;;;;;;13.93;12.30;;;;;;;-2.01;nan;98392.72;5035836;28;20537;-69
2022/04/04 04:44:23;;;;;;;13.60;11.33;;;;;;;-1.99;nan;98399.44;5035584;28;20485;-69
2022/04/04 04:46:52;;;;;;;14.73;11.70;;;;;;;-2.10;nan;98396.97;5035722;28;20455;-69
2022/04/04 04:49:18;;;;;;;16.17;11.60;;;;;;;-2.21;nan;98397.03;5035565;28;21027;-71
2022/04/04 04:51:45;;;;;;;14.47;11.40;;;;;;;-2.18;nan;98391.59;5035547;28;20471;-71
2022/04/04 04:54:11;;;;;;;15.73;11.37;;;;;;;-2.16;nan;98399.25;5035659;28;20466;-69
2022/04/04 04:56:38;;;;;;;14.53;10.77;;;;;;;-2.20;nan;98406.53;5035235;28;21031;-69
2022/04/04 04:59:04;;;;;;;20.20;11.80;;;;;;;-2.23;nan;98398.13;5035632;28;20455;-69
2022/04/04 05:01:31;;;;;;;13.57;11.30;;;;;;;-2.23;nan;98401.56;5035021;28;20444;-69
2022/04/04 05:03:57;;;;;;;15.27;10.80;;;;;;;-2.18;nan;98396.78;5035316;28;20454;-69
2022/04/04 05:06:23;;;;;;;12.00;10.37;;;;;;;-2.14;nan;98402.56;5034987;28;20443;-69
2022/04/04 05:08:50;;;;;;;13.83;11.23;;;;;;;-2.11;nan;98386.66;5035637;28;20439;-69
2022/04/04 05:11:16;;;;;;;12.67;10.63;;;;;;;-2.11;nan;98395.31;5034656;28;20486;-69
2022/04/04 05:13:42;;;;;;;11.80;10.10;;;;;;;-2.07;nan;98396.69;5034868;28;20451;-69
2022/04/04 05:16:10;;;;;;;13.80;10.00;;;;;;;-2.12;nan;98388.44;5035328;28;20453;-68
2022/04/04 05:18:37;;;;;;;12.13;9.57;;;;;;;-2.11;nan;98386.66;5034976;28;20447;-68
2022/04/04 05:21:04;;;;;;;13.87;10.43;;;;;;;-2.03;nan;98390.25;5034997;28;20550;-67
2022/04/04 05:23:31;;;;;;;13.93;9.70;;;;;;;-2.10;nan;98393.53;5034259;28;20435;-68
2022/04/04 05:25:57;;;;;;;13.80;10.70;;;;;;;-2.19;nan;98391.72;5034225;28;20446;-72
2022/04/04 05:28:23;;;;;;;13.27;10.17;;;;;;;-2.13;nan;98397.22;5034672;28;20814;-69
2022/04/04 05:30:50;;;;;;;11.23;9.17;;;;;;;-2.12;nan;98388.44;5034787;28;20596;-68
2022/04/04 05:33:16;;;;;;;12.40;10.07;;;;;;;-2.13;nan;98397.22;5034868;28;20439;-69
2022/04/04 05:35:43;;;;;;;12.87;9.30;;;;;;;-2.01;nan;98392.72;5034332;28;20450;-68
2022/04/04 05:38:11;;;;;;;9.80;8.80;;;;;;;-1.95;nan;98392.19;5034729;28;20800;-68
2022/04/04 05:40:38;;;;;;;12.37;9.37;;;;;;;-1.87;nan;98397.56;5033964;28;20493;-68
2022/04/04 05:43:04;;;;;;;10.57;8.73;;;;;;;-1.95;nan;98397.41;5034324;28;20447;-68
2022/04/04 05:45:30;;;;;;;12.40;9.87;;;;;;;-1.86;nan;98392.22;5034225;28;20443;-68
2022/04/04 05:47:57;;;;;;;12.40;9.37;;;;;;;-1.83;nan;98397.19;5034016;28;20542;-68
2022/04/04 05:50:23;;;;;;;12.13;8.93;;;;;;;-1.75;nan;98399.91;5034152;28;20457;-69
2022/04/04 05:52:50;;;;;;;11.77;8.73;;;;;;;-1.64;nan;98398.97;5034167;28;20970;-69
2022/04/04 05:55:17;;;;;;;10.07;8.70;;;;;;;-1.56;nan;98396.53;5034421;28;20443;-68
2022/04/04 05:57:44;;;;;;;15.20;9.93;;;;;;;-1.41;nan;98396.00;5034483;28;20479;-68
2022/04/04 06:00:13;;;;;;;12.73;8.40;;;;;;;-1.45;nan;98399.84;5034761;28;20439;-69
2022/04/04 06:02:41;;;;;;;14.20;8.97;;;;;;;-1.30;nan;98392.44;5034099;28;20435;-68
2022/04/04 06:05:09;;;;;;;11.43;8.53;;;;;;;-1.22;nan;98390.78;5034112;28;20435;-67
2022/04/04 06:07:36;;;;;;;10.03;8.27;;;;;;;-1.03;nan;98393.38;5033947;28;20505;-67
2022/04/04 06:10:05;;;;;;;11.80;9.17;;;;;;;-0.97;nan;98387.63;5033860;28;20870;-67
2022/04/04 06:12:31;;;;;;;10.43;8.20;;;;;;;-0.84;nan;98390.75;5034014;28;20479;-67
2022/04/04 06:14:58;;;;;;;9.87;8.13;;;;;;;-0.89;nan;98389.53;5033510;28;20530;-66
2022/04/04 06:17:24;;;;;;;10.70;8.77;;;;;;;-0.85;nan;98391.72;5034333;28;20527;-66
2022/04/04 06:19:50;;;;;;;11.70;8.80;;;;;;;-0.77;nan;98381.41;5033526;28;20926;-66
2022/04/04 06:22:17;;;;;;;12.67;8.87;;;;;;;-0.65;nan;98390.72;5033788;28;20443;-66
2022/04/04 06:24:43;;;;;;;10.37;8.40;;;;;;;-0.66;nan;98389.09;5033097;28;20445;-68
2022/04/04 06:27:10;;;;;;;12.63;8.47;;;;;;;-0.55;nan;98396.75;5049120;28;20458;-67
2022/04/04 06:29:36;;;;;;;9.83;8.27;;;;;;;-0.48;nan;98387.38;5053525;28;20552;-68
2022/04/04 06:32:03;;;;;;;12.00;8.53;;;;;;;-0.33;nan;98400.78;5053051;28;20474;-67
2022/04/04 06:34:48;;;;;;;9.10;7.60;;;;;;;-0.23;nan;98385.91;5053427;28;20459;-67
2022/04/04 06:37:15;;;;;;;11.40;8.03;;;;;;;-0.15;nan;98384.22;5053038;28;21007;-68
2022/04/04 06:39:41;;;;;;;8.87;7.57;;;;;;;-0.11;nan;98384.75;5053218;28;20488;-68
2022/04/04 06:42:08;;;;;;;9.83;7.20;;;;;;;-0.20;nan;98389.06;5052876;28;20936;-68
2022/04/04 06:44:34;;;;;;;10.80;6.77;;;;;;;-0.17;nan;98388.75;5053491;28;20434;-68
2022/04/04 06:47:00;;;;;;;6.33;5.70;;;;;;;-0.02;nan;98384.72;5053684;28;20466;-69
2022/04/04 06:49:28;;;;;;;8.67;6.73;;;;;;;0.08;nan;98384.66;5052964;28;21031;-68
2022/04/04 06:51:56;;;;;;;10.37;7.10;;;;;;;0.17;nan;98385.59;5052637;28;20489;-68
2022/04/04 06:54:23;;;;;;;6.47;5.77;;;;;;;0.19;nan;98381.88;5053185;28;20454;-68
2022/04/04 06:56:52;;;;;;;8.90;6.30;;;;;;;0.31;nan;98382.47;5052971;28;20482;-68
2022/04/04 06:59:18;;;;;;;7.40;6.10;;;;;;;0.39;nan;98380.75;5053108;28;20446;-68
2022/04/04 07:01:45;;;;;;;11.53;5.73;;;;;;;0.45;nan;98371.50;5052879;28;20755;-68
2022/04/04 07:04:11;;;;;;;7.67;6.13;;;;;;;0.50;nan;98375.34;5053079;28;20213;-68
2022/04/04 07:06:38;;;;;;;13.30;7.20;;;;;;;0.68;nan;98373.53;5053171;28;20225;-68
2022/04/04 07:09:05;;;;;;;9.80;6.93;;;;;;;0.96;nan;98369.03;5052569;28;20684;-68
2022/04/04 07:11:33;;;;;;;8.80;7.60;;;;;;;1.27;nan;98371.09;5052335;28;20228;-68
2022/04/04 07:14:00;;;;;;;11.07;7.80;;;;;;;0.99;nan;98369.53;5052572;28;20201;-68
2022/04/04 07:16:26;;;;;;;8.97;7.43;;;;;;;0.93;nan;98372.78;5052904;28;20213;-68
2022/04/04 07:18:53;;;;;;;8.57;7.47;;;;;;;1.07;nan;98371.44;5053249;28;20209;-68
2022/04/04 07:21:20;;;;;;;12.43;7.57;;;;;;;1.14;nan;98370.66;5052980;28;20787;-68
2022/04/04 07:23:48;;;;;;;7.90;6.60;;;;;;;1.22;nan;98362.03;5052959;28;20644;-69
2022/04/04 07:26:19;;;;;;;9.53;6.93;;;;;;;1.25;nan;98361.72;5052665;28;20211;-68
2022/04/04 07:28:46;;;;;;;9.03;6.40;;;;;;;1.59;nan;98363.44;5041004;28;20272;-69
2022/04/04 07:31:14;;;;;;;9.97;6.80;;;;;;;1.74;nan;98363.66;5032248;28;20301;-68
2022/04/04 07:33:41;;;;;;;10.03;7.40;;;;;;;1.68;nan;98365.13;5032983;28;20236;-69
2022/04/04 07:36:07;;;;;;;8.50;6.27;;;;;;;1.60;nan;98359.81;5032840;28;20212;-69
2022/04/04 07:38:34;;;;;;;13.00;6.80;;;;;;;1.92;nan;98362.59;5032598;28;20712;-68
2022/04/04 07:41:00;;;;;;;8.77;6.23;;;;;;;1.82;nan;98359.28;5032931;28;20209;-68
2022/04/04 07:43:27;;;;;;;8.67;5.50;;;;;;;1.90;nan;98355.88;5033168;28;20242;-69
2022/04/04 07:45:53;;;;;;;5.03;4.57;;;;;;;2.08;nan;98346.91;5032850;28;20208;-69
2022/04/04 07:48:19;;;;;;;4.80;4.03;;;;;;;2.10;nan;98355.47;5033016;28;20251;-68
2022/04/04 07:50:46;;;;;;;5.13;4.63;;;;;;;2.29;nan;98355.19;5033001;28;20206;-68
2022/04/04 07:53:13;;;;;;;5.67;4.50;;;;;;;2.47;nan;98353.25;5032620;28;20237;-68
2022/04/04 07:55:41;;;;;;;5.37;4.70;;;;;;;2.45;nan;98355.25;5032650;28;20205;-68
2022/04/04 07:58:07;;;;;;;5.13;4.63;;;;;;;2.54;nan;98342.94;5032483;28;20237;-68
2022/04/04 08:00:33;;;;;;;4.77;4.30;;;;;;;2.61;nan;98344.75;5033010;28;20227;-68
2022/04/04 08:03:00;;;;;;;5.40;4.90;;;;;;;2.62;nan;98340.34;5032637;28;20213;-68
2022/04/04 08:05:26;;;;;;;5.57;5.07;;;;;;;2.64;nan;98340.97;5036042;28;20209;-69
2022/04/04 08:07:53;;;;;;;6.23;4.60;;;;;;;2.77;nan;98334.28;5036682;28;20226;-68
2022/04/04 08:10:21;;;;;;;5.47;4.90;;;;;;;2.88;nan;98336.56;5036606;28;20232;-72
2022/04/04 08:12:47;;;;;;;6.57;4.80;;;;;;;2.94;nan;98329.84;5036521;28;20283;-68
2022/04/04 08:15:14;;;;;;;5.13;4.63;;;;;;;3.01;nan;98334.28;5036457;28;20572;-68
2022/04/04 08:17:40;;;;;;;10.00;5.27;;;;;;;3.03;nan;98328.88;5036528;28;20226;-69
2022/04/04 08:20:08;;;;;;;5.40;4.80;;;;;;;3.19;nan;98328.84;5035341;28;20221;-68
2022/04/04 08:22:42;;;;;;;5.87;4.97;;;;;;;3.12;nan;98325.25;5036446;28;20371;-69
2022/04/04 08:25:10;;;;;;;6.77;5.00;;;;;;;3.24;nan;98319.47;5036343;28;20210;-68
2022/04/04 08:27:37;;;;;;;5.23;4.73;;;;;;;3.30;nan;98320.63;5035945;28;20232;-69
2022/04/04 08:30:05;;;;;;;5.33;4.83;;;;;;;3.44;nan;98322.56;5035873;28;20669;-68
2022/04/04 08:32:36;;;;;;;6.23;5.07;;;;;;;3.35;nan;98315.69;5036258;28;20248;-69
2022/04/04 08:35:03;;;;;;;7.43;5.23;;;;;;;3.42;nan;98314.03;5035839;28;20187;-68
2022/04/04 08:37:31;;;;;;;7.17;5.07;;;;;;;3.64;nan;98306.25;5035657;28;20229;-68
2022/04/04 08:39:58;;;;;;;5.73;5.20;;;;;;;3.73;nan;98307.03;5036146;28;20224;-69
2022/04/04 08:42:27;;;;;;;5.73;5.20;;;;;;;3.61;nan;98305.78;5035593;28;20217;-68
2022/04/04 08:44:58;;;;;;;5.47;4.90;;;;;;;3.70;nan;98315.28;5035976;28;20201;-68
2022/04/04 08:47:27;;;;;;;5.37;4.87;;;;;;;3.67;nan;98307.72;5035839;28;20236;-70
2022/04/04 08:49:55;;;;;;;5.30;4.67;;;;;;;3.65;nan;98304.44;5035768;28;20206;-67
2022/04/04 08:52:23;;;;;;;5.93;5.33;;;;;;;3.66;nan;98298.19;5035451;28;20226;-67
2022/04/04 08:54:50;;;;;;;5.30;4.80;;;;;;;3.65;nan;98299.16;5035775;28;20206;-67
2022/04/04 08:57:16;;;;;;;5.67;4.80;;;;;;;3.76;nan;98296.19;5035315;28;20261;-66
2022/04/04 08:59:43;;;;;;;5.43;4.73;;;;;;;3.89;nan;98297.25;5035449;28;20210;-67
2022/04/04 09:02:11;;;;;;;4.97;4.57;;;;;;;3.86;nan;98299.44;5035556;28;20553;-67
2022/04/04 09:04:39;;;;;;;4.53;4.20;;;;;;;3.94;nan;98288.88;5035911;28;20213;-66
2022/04/04 09:07:07;;;;;;;4.70;4.03;;;;;;;3.94;nan;98283.63;5035425;28;20222;-66
2022/04/04 09:09:39;;;;;;;5.10;4.60;;;;;;;3.91;nan;98279.53;5035637;28;20228;-67
2022/04/04 09:12:07;;;;;;;4.43;4.03;;;;;;;3.97;nan;98278.03;5035166;28;20222;-67
2022/04/04 09:14:54;;;;;;;7.03;4.73;;;;;;;4.14;nan;98271.66;5035310;28;20212;-67
2022/04/04 09:17:33;;;;;;;4.80;3.90;;;;;;;4.00;nan;98267.13;5035040;28;20234;-67
2022/04/04 09:20:09;;;;;;;4.97;3.93;;;;;;;4.20;nan;98269.16;5035610;28;20293;-66
2022/04/04 09:22:35;;;;;;;5.40;4.13;;;;;;;4.47;nan;98260.75;5035443;28;20193;-67
2022/04/04 09:25:02;;;;;;;4.80;3.47;;;;;;;4.43;nan;98259.47;5035256;28;20206;-67
2022/04/04 09:27:31;;;;;;;3.77;3.33;;;;;;;4.33;nan;98258.03;5034839;28;20634;-67
2022/04/04 09:30:00;;;;;;;4.53;3.50;;;;;;;4.39;nan;98255.53;5034829;28;20577;-66
2022/04/04 09:32:44;;;;;;;7.37;4.30;;;;;;;4.46;nan;98251.22;5034949;28;20228;-67
2022/04/04 09:35:13;;;;;;;6.33;4.37;;;;;;;4.53;nan;98241.59;5035164;28;20217;-67
2022/04/04 09:37:45;;;;;;;4.20;3.80;;;;;;;4.69;nan;98245.94;5035001;28;20237;-66
2022/04/04 09:40:16;;;;;;;4.40;3.97;;;;;;;4.43;nan;98246.28;5034790;28;20186;-67
2022/04/04 09:42:52;;;;;;;4.33;3.93;;;;;;;4.44;nan;98233.97;5034838;28;20186;-67
2022/04/04 09:45:20;;;;;;;5.63;4.40;;;;;;;4.70;nan;98229.16;5034854;28;20210;-66
2022/04/04 09:47:56;;;;;;;5.93;3.83;;;;;;;4.75;nan;98232.88;5034762;28;20222;-67
2022/04/04 09:50:41;;;;;;;5.23;3.97;;;;;;;4.60;nan;98218.84;5034493;28;20210;-67
2022/04/04 09:53:31;;;;;;;4.33;3.90;;;;;;;4.70;nan;98223.88;5034521;28;20217;-67
2022/04/04 09:56:00;;;;;;;4.37;3.97;;;;;;;4.98;nan;98211.78;5030516;28;20213;-67
2022/04/04 09:58:30;;;;;;;4.43;3.80;;;;;;;5.18;nan;98204.94;5053903;28;20241;-67
2022/04/04 10:00:58;;;;;;;4.87;4.37;;;;;;;4.94;nan;98213.13;5054308;28;20232;-67
2022/04/04 10:03:25;;;;;;;4.97;4.47;;;;;;;4.61;nan;98203.88;5054523;28;20288;-69
2022/04/04 10:06:02;;;;;;;4.70;4.30;;;;;;;4.88;nan;98206.75;5054253;28;20231;-67
2022/04/04 10:08:31;;;;;;;5.63;4.70;;;;;;;5.07;nan;98194.88;5053871;28;20729;-66
2022/04/04 10:10:58;;;;;;;8.10;4.30;;;;;;;5.18;nan;98181.25;5053871;28;20216;-67
2022/04/04 10:13:26;;;;;;;6.90;4.23;;;;;;;5.05;nan;98178.41;5053676;28;20221;-67
2022/04/04 10:15:54;;;;;;;5.97;4.47;;;;;;;5.31;nan;98182.25;5053523;28;20213;-67
2022/04/04 10:18:21;;;;;;;4.57;4.17;;;;;;;5.48;nan;98174.97;5053390;28;20773;-67
2022/04/04 10:20:52;;;;;;;4.67;4.27;;;;;;;5.39;nan;98178.69;5053893;28;20220;-67
2022/04/04 10:23:20;;;;;;;5.80;4.63;;;;;;;5.41;nan;98177.50;5053873;28;20236;-67
2022/04/04 10:25:50;;;;;;;4.40;4.00;;;;;;;5.74;nan;98167.38;5053918;28;20305;-65
2022/04/04 10:28:37;;;;;;;4.67;4.17;;;;;;;5.51;nan;98162.22;5053284;28;20252;-65
2022/04/04 10:31:23;;;;;;;5.50;4.97;;;;;;;6.23;nan;98153.28;5053627;28;20629;-66
2022/04/04 10:33:52;;;;;;;5.30;4.80;;;;;;;6.55;nan;98144.00;5053550;28;20225;-67
2022/04/04 10:36:24;;;;;;;5.37;4.23;;;;;;;6.23;nan;98149.81;5053554;28;20212;-70
2022/04/04 10:38:56;;;;;;;4.67;4.20;;;;;;;5.92;nan;98151.97;5053234;28;20251;-69
2022/04/04 10:41:27;;;;;;;6.70;4.30;;;;;;;6.34;nan;98136.13;5053655;28;20196;-68
2022/04/04 10:43:55;;;;;;;4.80;4.40;;;;;;;6.17;nan;98140.03;5053345;28;20528;-69
2022/04/04 10:46:24;;;;;;;5.63;4.63;;;;;;;5.97;nan;98136.41;5053057;28;20245;-69
2022/04/04 10:48:56;;;;;;;6.57;4.47;;;;;;;6.00;nan;98128.91;5053563;28;20205;-69
2022/04/04 10:51:36;;;;;;;5.27;4.33;;;;;;;5.53;nan;98133.03;5053035;28;20197;-68
2022/04/04 10:54:06;;;;;;;4.63;4.23;;;;;;;5.55;nan;98120.47;5053178;28;20240;-69
2022/04/04 10:56:34;;;;;;;4.93;4.30;;;;;;;5.82;nan;98122.41;5052478;28;20228;-68
2022/04/04 10:59:16;;;;;;;4.57;4.17;;;;;;;6.08;nan;98120.03;5053222;28;20190;-69
2022/04/04 11:01:43;;;;;;;4.50;4.07;;;;;;;5.97;nan;98107.38;5052944;28;20209;-68
2022/04/04 11:04:25;;;;;;;3.67;3.30;;;;;;;6.10;nan;98099.56;5053409;28;20197;-68
2022/04/04 11:09:51;;;;;;;3.93;3.53;;;;;;;6.43;nan;98090.88;5052704;28;20635;-68
2022/04/04 11:12:18;;;;;;;4.07;3.60;;;;;;;6.40;nan;98086.00;5053124;28;20676;-69
2022/04/04 11:14:57;;;;;;;4.27;3.67;;;;;;;6.46;nan;98073.84;5052968;28;20213;-68
2022/04/04 11:17:30;;;;;;;3.87;3.23;;;;;;;6.45;nan;98085.44;5053003;28;20225;-68
2022/04/04 11:20:14;;;;;;;3.93;3.10;;;;;;;6.41;nan;98081.53;5052515;28;20692;-68
2022/04/04 11:22:46;;;;;;;3.50;3.20;;;;;;;6.06;nan;98072.72;5052507;28;20189;-70
2022/04/04 11:25:15;;;;;;;3.57;3.27;;;;;;;6.08;nan;98075.19;5052755;28;20334;-68
2022/04/04 11:27:47;;;;;;;4.20;3.43;;;;;;;6.19;nan;98066.75;5052629;28;20264;-69
2022/04/04 11:30:14;;;;;;;3.73;3.43;;;;;;;6.36;nan;98062.81;5052898;28;20387;-68
2022/04/04 11:32:41;;;;;;;4.53;3.77;;;;;;;6.31;nan;98052.00;5052619;28;20283;-68
2022/04/04 11:35:11;;;;;;;4.40;4.00;;;;;;;6.30;nan;98058.31;5052921;28;20271;-68
2022/04/04 11:37:49;;;;;;;6.13;3.57;;;;;;;6.22;nan;98056.63;5052579;28;20236;-67
2022/04/04 11:40:18;;;;;;;4.20;3.63;;;;;;;6.12;nan;98048.22;5055360;28;20663;-68
2022/04/04 11:42:50;;;;;;;3.70;3.40;;;;;;;6.28;nan;98037.38;5056820;28;20205;-69
2022/04/04 11:45:28;;;;;;;4.07;3.73;;;;;;;6.46;nan;98027.13;5056772;28;20185;-69
2022/04/04 11:48:02;;;;;;;3.90;3.60;;;;;;;6.29;nan;98033.72;5056921;28;20229;-69
2022/04/04 11:50:30;;;;;;;5.83;3.90;;;;;;;6.07;nan;98020.78;5056800;28;20197;-69
2022/04/04 11:53:06;;;;;;;4.93;3.50;;;;;;;6.18;nan;98012.31;5057255;28;20236;-68
2022/04/04 11:55:36;;;;;;;3.33;3.03;;;;;;;6.29;nan;98009.16;5056578;28;20193;-68
2022/04/04 11:58:10;;;;;;;3.27;2.97;;;;;;;6.41;nan;98019.00;5056418;28;20306;-69
2022/04/04 12:00:38;;;;;;;3.60;2.93;;;;;;;6.47;nan;98010.28;5056377;28;20669;-69